createdAt,value
2019-05-05T00:00:40.034Z,5.56
2019-05-05T00:01:39.736Z,5.51
2019-05-05T00:02:39.756Z,5.57
2019-05-05T00:03:39.486Z,5.46
2019-05-05T00:04:39.712Z,5.46
2019-05-05T00:05:39.976Z,5.43
2019-05-05T00:06:39.944Z,5.41
2019-05-05T00:07:39.948Z,5.39
2019-05-05T00:08:40.780Z,5.33
2019-05-05T00:09:39.665Z,5.26
2019-05-05T00:10:39.921Z,5.32
2019-05-05T00:11:40.085Z,5.33
2019-05-05T00:12:39.895Z,5.26
2019-05-05T00:13:39.398Z,5.2
2019-05-05T00:14:39.924Z,5.17
2019-05-05T00:15:39.613Z,5.14
2019-05-05T00:16:39.930Z,5.14
2019-05-05T00:17:39.630Z,5.15
2019-05-05T00:18:39.842Z,5.08
2019-05-05T00:19:40.484Z,5.15
2019-05-05T00:20:39.338Z,5.17
2019-05-05T00:21:39.585Z,5.18
2019-05-05T00:22:39.362Z,5.17
2019-05-05T00:23:39.791Z,5.21
2019-05-05T00:24:39.692Z,5.28
2019-05-05T00:25:39.786Z,5.3
2019-05-05T00:26:39.551Z,5.26
2019-05-05T00:27:39.770Z,5.3
2019-05-05T00:28:39.992Z,5.28
2019-05-05T00:29:39.738Z,5.29
2019-05-05T00:30:39.492Z,5.29
2019-05-05T00:31:39.847Z,5.3
2019-05-05T00:32:39.747Z,5.25
2019-05-05T00:33:39.731Z,5.33
2019-05-05T00:34:39.625Z,5.25
2019-05-05T00:35:39.449Z,5.29
2019-05-05T00:36:40.132Z,5.26
2019-05-05T00:37:39.420Z,5.23
2019-05-05T00:38:39.918Z,5.3
2019-05-05T00:39:39.644Z,5.3
2019-05-05T00:40:39.675Z,5.2
2019-05-05T00:41:39.380Z,5.3
2019-05-05T00:42:40.085Z,5.23
2019-05-05T00:43:39.610Z,5.21
2019-05-05T00:44:40.092Z,5.28
2019-05-05T00:45:39.585Z,5.3
2019-05-05T00:46:39.809Z,5.29
2019-05-05T00:47:39.585Z,5.2
2019-05-05T00:48:39.891Z,5.12
2019-05-05T00:49:51.620Z,5.17
2019-05-05T00:50:39.298Z,5.17
2019-05-05T00:51:39.670Z,5.14
2019-05-05T00:52:39.518Z,5.15
2019-05-05T00:53:39.518Z,5.18
2019-05-05T00:54:39.615Z,5.14
2019-05-05T00:55:39.819Z,5.18
2019-05-05T00:56:39.508Z,5.3
2019-05-05T00:57:39.633Z,5.25
2019-05-05T00:58:40.114Z,5.3
2019-05-05T00:59:39.439Z,5.32
2019-05-05T01:00:39.788Z,5.25
2019-05-05T01:01:39.203Z,5.28
2019-05-05T01:02:39.455Z,5.35
2019-05-05T01:03:39.387Z,5.33
2019-05-05T01:04:40.017Z,5.35
2019-05-05T01:05:39.422Z,5.41
2019-05-05T01:06:39.416Z,5.39
2019-05-05T01:07:39.674Z,5.41
2019-05-05T01:08:39.890Z,5.32
2019-05-05T01:09:39.134Z,5.36
2019-05-05T01:10:39.899Z,5.32
2019-05-05T01:11:40.396Z,5.36
2019-05-05T01:12:39.489Z,5.3
2019-05-05T01:13:39.770Z,5.26
2019-05-05T01:14:39.365Z,5.26
2019-05-05T01:15:38.867Z,5.29
2019-05-05T01:16:39.741Z,5.2
2019-05-05T01:17:39.404Z,5.1
2019-05-05T01:18:39.987Z,5.14
2019-05-05T01:19:39.545Z,5.15
2019-05-05T01:20:39.277Z,5.18
2019-05-05T01:21:39.757Z,5.11
2019-05-05T01:22:39.274Z,5.18
2019-05-05T01:23:39.875Z,5.05
2019-05-05T01:24:39.007Z,5.04
2019-05-05T01:25:39.326Z,5.04
2019-05-05T01:26:40.205Z,5.02
2019-05-05T01:27:39.330Z,5.04
2019-05-05T01:28:40.379Z,5.04
2019-05-05T01:29:39.503Z,5.04
2019-05-05T01:30:39.623Z,5.04
2019-05-05T01:31:39.546Z,5.04
2019-05-05T01:32:39.689Z,5.04
2019-05-05T01:33:39.215Z,4.94
2019-05-05T01:34:39.433Z,5.04
2019-05-05T01:35:39.165Z,5.08
2019-05-05T01:36:39.421Z,5.08
2019-05-05T01:37:39.671Z,5.05
2019-05-05T01:38:39.134Z,4.97
2019-05-05T01:39:39.410Z,5.02
2019-05-05T01:40:40.166Z,5.02
2019-05-05T01:41:39.398Z,5.04
2019-05-05T01:42:40.070Z,4.86
2019-05-05T01:43:39.484Z,4.96
2019-05-05T01:44:40.058Z,4.87
2019-05-05T01:45:39.331Z,4.96
2019-05-05T01:46:40.232Z,4.87
2019-05-05T01:47:39.557Z,4.84
2019-05-05T01:48:39.935Z,4.87
2019-05-05T01:49:39.372Z,4.86
2019-05-05T01:50:39.541Z,4.84
2019-05-05T01:51:40.031Z,4.8
2019-05-05T01:52:39.292Z,4.86
2019-05-05T01:53:39.793Z,4.74
2019-05-05T01:54:40.110Z,4.78
2019-05-05T01:55:39.614Z,4.74
2019-05-05T01:56:40.004Z,4.8
2019-05-05T01:57:38.778Z,4.71
2019-05-05T01:58:39.489Z,4.66
2019-05-05T01:59:39.916Z,4.77
2019-05-05T02:00:39.597Z,4.75
2019-05-05T02:01:39.780Z,4.8
2019-05-05T02:02:39.094Z,4.71
2019-05-05T02:03:39.834Z,4.78
2019-05-05T02:04:39.202Z,4.78
2019-05-05T02:05:39.698Z,4.78
2019-05-05T02:06:39.869Z,4.78
2019-05-05T02:07:39.050Z,4.75
2019-05-05T02:08:39.765Z,4.73
2019-05-05T02:09:40.220Z,4.78
2019-05-05T02:10:39.716Z,4.77
2019-05-05T02:11:39.668Z,4.71
2019-05-05T02:12:40.146Z,4.6
2019-05-05T02:13:39.476Z,4.73
2019-05-05T02:14:40.011Z,4.73
2019-05-05T02:15:39.016Z,4.77
2019-05-05T02:16:39.569Z,4.66
2019-05-05T02:17:40.080Z,4.75
2019-05-05T02:18:39.228Z,4.63
2019-05-05T02:19:39.845Z,4.73
2019-05-05T02:20:39.088Z,4.63
2019-05-05T02:21:40.142Z,4.6
2019-05-05T02:22:40.199Z,4.74
2019-05-05T02:23:39.799Z,4.66
2019-05-05T02:24:40.196Z,4.73
2019-05-05T02:25:39.120Z,4.59
2019-05-05T02:26:39.877Z,4.67
2019-05-05T02:27:39.184Z,4.63
2019-05-05T02:28:39.523Z,4.63
2019-05-05T02:29:40.125Z,4.59
2019-05-05T02:30:40.817Z,4.62
2019-05-05T02:31:40.945Z,4.66
2019-05-05T02:32:40.781Z,4.7
2019-05-05T02:33:39.976Z,4.74
2019-05-05T02:34:40.297Z,4.71
2019-05-05T02:35:40.158Z,4.66
2019-05-05T02:36:40.174Z,4.68
2019-05-05T02:37:40.555Z,4.73
2019-05-05T02:38:40.421Z,4.75
2019-05-05T02:39:58.745Z,4.78
2019-05-05T02:40:39.652Z,4.89
2019-05-05T02:41:39.415Z,4.87
2019-05-05T02:42:40.328Z,4.86
2019-05-05T02:43:39.150Z,4.86
2019-05-05T02:44:39.578Z,4.87
2019-05-05T02:45:39.653Z,4.75
2019-05-05T02:46:40.613Z,4.78
2019-05-05T02:47:39.798Z,4.75
2019-05-05T02:48:40.356Z,4.77
2019-05-05T02:49:40.032Z,4.68
2019-05-05T02:51:06.798Z,4.73
2019-05-05T02:51:40.341Z,4.7
2019-05-05T02:52:39.301Z,4.77
2019-05-05T02:53:38.668Z,4.67
2019-05-05T02:54:38.683Z,4.73
2019-05-05T02:55:39.612Z,4.59
2019-05-05T02:56:38.987Z,4.67
2019-05-05T02:57:39.372Z,4.73
2019-05-05T02:58:38.562Z,4.67
2019-05-05T02:59:39.587Z,4.74
2019-05-05T03:00:39.253Z,4.78
2019-05-05T03:01:38.704Z,4.77
2019-05-05T03:02:39.881Z,4.75
2019-05-05T03:03:38.876Z,4.86
2019-05-05T03:04:38.237Z,4.9
2019-05-05T03:05:38.887Z,4.84
2019-05-05T03:06:39.067Z,4.87
2019-05-05T03:07:38.981Z,4.89
2019-05-05T03:08:38.409Z,4.93
2019-05-05T03:09:39.018Z,4.93
2019-05-05T03:10:38.823Z,5
2019-05-05T03:11:39.195Z,4.96
2019-05-05T03:12:39.447Z,4.94
2019-05-05T03:13:38.571Z,4.99
2019-05-05T03:14:38.942Z,5
2019-05-05T03:15:38.236Z,4.97
2019-05-05T03:16:38.923Z,4.99
2019-05-05T03:17:38.935Z,5.04
2019-05-05T03:18:38.622Z,5
2019-05-05T03:19:38.253Z,5
2019-05-05T03:20:38.890Z,4.94
2019-05-05T03:21:38.123Z,4.97
2019-05-05T03:22:38.921Z,4.97
2019-05-05T03:23:38.295Z,4.93
2019-05-05T03:24:38.716Z,5
2019-05-05T03:25:38.186Z,4.99
2019-05-05T03:26:38.853Z,5.02
2019-05-05T03:27:38.954Z,4.94
2019-05-05T03:28:39.242Z,4.96
2019-05-05T03:29:38.447Z,4.89
2019-05-05T03:30:40.469Z,4.92
2019-05-05T03:31:39.809Z,4.97
2019-05-05T03:32:40.392Z,4.94
2019-05-05T03:33:40.001Z,5.05
2019-05-05T03:34:39.196Z,4.99
2019-05-05T03:35:39.367Z,5.05
2019-05-05T03:36:38.774Z,5.07
2019-05-05T03:37:38.952Z,5.12
2019-05-05T03:38:38.551Z,5.08
2019-05-05T03:39:38.675Z,5.15
2019-05-05T03:40:38.688Z,5.1
2019-05-05T03:41:39.067Z,5.12
2019-05-05T03:42:38.680Z,5.12
2019-05-05T03:43:39.079Z,5.12
2019-05-05T03:44:38.371Z,5.1
2019-05-05T03:45:38.781Z,5.17
2019-05-05T03:46:39.360Z,5.14
2019-05-05T03:47:38.592Z,5.15
2019-05-05T03:48:39.420Z,5.18
2019-05-05T03:49:38.641Z,5.28
2019-05-05T03:50:38.892Z,5.17
2019-05-05T03:51:39.313Z,5.17
2019-05-05T03:52:39.432Z,5.14
2019-05-05T03:53:38.614Z,5.1
2019-05-05T03:54:39.063Z,5.08
2019-05-05T03:55:39.422Z,5.05
2019-05-05T03:56:39.330Z,5.08
2019-05-05T03:57:38.457Z,4.96
2019-05-05T03:58:39.230Z,5
2019-05-05T03:59:38.087Z,4.93
2019-05-05T04:00:38.577Z,4.99
2019-05-05T04:01:39.259Z,4.97
2019-05-05T04:02:38.696Z,4.96
2019-05-05T04:03:38.454Z,4.87
2019-05-05T04:04:38.405Z,4.9
2019-05-05T04:05:38.641Z,4.9
2019-05-05T04:06:38.748Z,4.89
2019-05-05T04:07:38.041Z,4.84
2019-05-05T04:08:38.709Z,4.89
2019-05-05T04:09:39.150Z,4.9
2019-05-05T04:10:38.310Z,4.87
2019-05-05T04:11:38.636Z,4.84
2019-05-05T04:12:39.170Z,4.86
2019-05-05T04:13:39.248Z,4.89
2019-05-05T04:14:39.602Z,4.93
2019-05-05T04:15:38.527Z,4.94
2019-05-05T04:16:39.030Z,4.9
2019-05-05T04:17:38.266Z,4.93
2019-05-05T04:18:38.747Z,4.99
2019-05-05T04:19:39.104Z,4.9
2019-05-05T04:20:38.585Z,4.87
2019-05-05T04:21:40.997Z,4.9
2019-05-05T04:22:38.899Z,4.89
2019-05-05T04:23:38.058Z,4.94
2019-05-05T04:24:38.782Z,4.86
2019-05-05T04:25:40.961Z,4.86
2019-05-05T04:26:38.109Z,4.74
2019-05-05T04:27:39.096Z,4.87
2019-05-05T04:28:39.120Z,4.86
2019-05-05T04:29:39.343Z,4.93
2019-05-05T04:30:38.466Z,4.9
2019-05-05T04:31:39.111Z,4.8
2019-05-05T04:32:39.106Z,4.82
2019-05-05T04:33:38.710Z,4.94
2019-05-05T04:34:39.577Z,4.99
2019-05-05T04:35:38.812Z,4.96
2019-05-05T04:36:38.680Z,5.04
2019-05-05T04:37:38.433Z,5.02
2019-05-05T04:38:39.561Z,5.02
2019-05-05T04:39:38.918Z,5
2019-05-05T04:40:39.160Z,5.04
2019-05-05T04:41:38.338Z,5.04
2019-05-05T04:42:38.527Z,5.05
2019-05-05T04:43:38.668Z,5.11
2019-05-05T04:44:39.039Z,5.08
2019-05-05T04:45:39.156Z,5.11
2019-05-05T04:46:38.404Z,5.1
2019-05-05T04:47:38.826Z,5.1
2019-05-05T04:48:39.306Z,5.17
2019-05-05T04:49:38.761Z,5.08
2019-05-05T04:50:39.415Z,5.11
2019-05-05T04:51:53.862Z,5
2019-05-05T04:52:38.697Z,5.04
2019-05-05T04:53:39.182Z,5.1
2019-05-05T04:54:37.783Z,5.04
2019-05-05T04:55:38.330Z,5.1
2019-05-05T04:56:38.943Z,5.14
2019-05-05T04:57:37.894Z,5.07
2019-05-05T04:58:38.409Z,5.08
2019-05-05T04:59:38.841Z,5.05
2019-05-05T05:00:38.738Z,5.08
2019-05-05T05:01:38.141Z,5.11
2019-05-05T05:02:38.968Z,5.12
2019-05-05T05:03:38.868Z,5.08
2019-05-05T05:04:38.185Z,5.07
2019-05-05T05:05:38.316Z,5.07
2019-05-05T05:06:38.746Z,5.05
2019-05-05T05:07:38.936Z,5.07
2019-05-05T05:08:38.335Z,5.14
2019-05-05T05:09:38.991Z,5.1
2019-05-05T05:10:39.295Z,5.11
2019-05-05T05:11:38.186Z,5.1
2019-05-05T05:12:38.983Z,5.11
2019-05-05T05:13:39.523Z,5.12
2019-05-05T05:14:38.602Z,5.05
2019-05-05T05:15:38.601Z,5.12
2019-05-05T05:16:38.131Z,5.02
2019-05-05T05:17:38.663Z,5.1
2019-05-05T05:18:38.890Z,5.11
2019-05-05T05:19:37.859Z,5.11
2019-05-05T05:20:38.831Z,5.12
2019-05-05T05:21:38.986Z,5.08
2019-05-05T05:22:38.037Z,5.14
2019-05-05T05:23:38.898Z,5.14
2019-05-05T05:24:39.048Z,5.11
2019-05-05T05:25:39.116Z,5.12
2019-05-05T05:26:38.376Z,5.08
2019-05-05T05:27:38.137Z,5.11
2019-05-05T05:28:38.702Z,5.05
2019-05-05T05:29:38.999Z,5.05
2019-05-05T05:30:39.102Z,5.02
2019-05-05T05:31:38.509Z,4.92
2019-05-05T05:32:39.802Z,4.89
2019-05-05T05:33:38.898Z,4.96
2019-05-05T05:34:39.127Z,5
2019-05-05T05:35:38.201Z,4.97
2019-05-05T05:36:38.616Z,5.02
2019-05-05T05:37:39.000Z,5.02
2019-05-05T05:38:39.070Z,5.14
2019-05-05T05:39:38.133Z,5.12
2019-05-05T05:40:38.462Z,5.08
2019-05-05T05:41:36.644Z,5.11
2019-05-05T05:42:38.180Z,5.12
2019-05-05T05:43:38.311Z,5.08
2019-05-05T05:44:38.409Z,5.08
2019-05-05T05:45:38.768Z,5.07
2019-05-05T05:46:38.215Z,5.11
2019-05-05T05:47:38.694Z,5.14
2019-05-05T05:48:38.710Z,5.1
2019-05-05T05:49:36.891Z,5.07
2019-05-05T05:50:38.720Z,5.12
2019-05-05T05:51:38.565Z,5.12
2019-05-05T05:52:36.667Z,5.12
2019-05-05T05:53:37.437Z,5.07
2019-05-05T05:54:38.274Z,5.05
2019-05-05T05:55:39.060Z,5.04
2019-05-05T05:56:38.982Z,4.99
2019-05-05T05:57:36.825Z,4.99
2019-05-05T05:58:38.609Z,4.99
2019-05-05T05:59:38.689Z,5.02
2019-05-05T06:00:41.606Z,4.99
2019-05-05T06:01:37.095Z,5
2019-05-05T06:02:38.074Z,4.99
2019-05-05T06:03:38.145Z,4.99
2019-05-05T06:04:38.825Z,4.99
2019-05-05T06:05:39.109Z,4.94
2019-05-05T06:06:37.179Z,4.97
2019-05-05T06:07:38.217Z,4.97
2019-05-05T06:08:37.235Z,5.05
2019-05-05T06:09:37.005Z,5.04
2019-05-05T06:10:38.694Z,4.97
2019-05-05T06:11:36.942Z,5.08
2019-05-05T06:12:38.484Z,5.14
2019-05-05T06:13:38.508Z,5.17
2019-05-05T06:14:38.774Z,5.14
2019-05-05T06:15:38.096Z,5.18
2019-05-05T06:16:38.620Z,5.3
2019-05-05T06:17:36.838Z,5.3
2019-05-05T06:18:37.082Z,5.39
2019-05-05T06:19:38.678Z,5.35
2019-05-05T06:20:36.961Z,5.3
2019-05-05T06:21:38.361Z,5.28
2019-05-05T06:22:38.780Z,5.21
2019-05-05T06:23:36.692Z,5.28
2019-05-05T06:24:37.097Z,5.32
2019-05-05T06:25:40.352Z,5.3
2019-05-05T06:26:38.457Z,5.29
2019-05-05T06:27:38.399Z,5.25
2019-05-05T06:28:36.772Z,5.32
2019-05-05T06:29:36.963Z,5.18
2019-05-05T06:30:38.435Z,5.18
2019-05-05T06:31:38.598Z,5.14
2019-05-05T06:32:36.719Z,5.08
2019-05-05T06:33:37.187Z,5.07
2019-05-05T06:34:38.556Z,5.12
2019-05-05T06:35:38.046Z,5.11
2019-05-05T06:36:38.610Z,5.07
2019-05-05T06:37:36.723Z,5.04
2019-05-05T06:38:37.138Z,5.1
2019-05-05T06:39:38.334Z,4.97
2019-05-05T06:40:36.378Z,4.96
2019-05-05T06:41:36.643Z,5.07
2019-05-05T06:42:36.756Z,5.02
2019-05-05T06:43:37.026Z,5.04
2019-05-05T06:44:38.524Z,4.97
2019-05-05T06:45:36.790Z,4.97
2019-05-05T06:46:36.434Z,5.07
2019-05-05T06:47:36.455Z,4.93
2019-05-05T06:48:36.859Z,5.05
2019-05-05T06:49:36.978Z,5.02
2019-05-05T06:50:36.927Z,5.05
2019-05-05T06:51:38.293Z,5.05
2019-05-05T06:52:49.608Z,5.15
2019-05-05T06:53:36.705Z,5.1
2019-05-05T06:54:37.034Z,5.15
2019-05-05T06:55:36.584Z,5.14
2019-05-05T06:56:36.621Z,5.12
2019-05-05T06:57:36.749Z,5.17
2019-05-05T06:58:37.146Z,5.18
2019-05-05T06:59:37.443Z,5.2
2019-05-05T07:00:36.927Z,5.29
2019-05-05T07:01:36.292Z,5.32
2019-05-05T07:02:36.734Z,5.43
2019-05-05T07:03:38.121Z,5.48
2019-05-05T07:04:36.321Z,5.44
2019-05-05T07:05:36.543Z,5.53
2019-05-05T07:06:36.743Z,5.56
2019-05-05T07:07:36.820Z,5.59
2019-05-05T07:08:37.196Z,5.82
2019-05-05T07:09:38.334Z,5.91
2019-05-05T07:10:36.346Z,5.91
2019-05-05T07:11:36.705Z,6.01
2019-05-05T07:12:36.892Z,5.99
2019-05-05T07:13:36.395Z,5.91
2019-05-05T07:14:36.310Z,6.01
2019-05-05T07:15:36.689Z,6.05
2019-05-05T07:16:36.718Z,6.11
2019-05-05T07:17:36.367Z,6.14
2019-05-05T07:18:36.307Z,6.22
2019-05-05T07:19:36.942Z,6.31
2019-05-05T07:20:37.123Z,6.26
2019-05-05T07:21:36.708Z,6.12
2019-05-05T07:22:37.163Z,5.98
2019-05-05T07:23:36.611Z,5.76
2019-05-05T07:24:36.933Z,5.71
2019-05-05T07:25:48.476Z,5.73
2019-05-05T07:26:36.529Z,5.75
2019-05-05T07:27:36.301Z,5.83
2019-05-05T07:28:36.739Z,5.84
2019-05-05T07:29:36.743Z,5.82
2019-05-05T07:30:36.062Z,5.94
2019-05-05T07:31:36.730Z,5.99
2019-05-05T07:32:36.295Z,6.16
2019-05-05T07:33:36.828Z,6.22
2019-05-05T07:34:35.932Z,6.35
2019-05-05T07:35:36.999Z,6.52
2019-05-05T07:36:36.572Z,6.56
2019-05-05T07:37:36.900Z,6.77
2019-05-05T07:38:36.223Z,6.89
2019-05-05T07:39:36.267Z,7.02
2019-05-05T07:40:36.792Z,7.25
2019-05-05T07:41:36.533Z,7.39
2019-05-05T07:42:36.057Z,7.45
2019-05-05T07:43:36.946Z,7.61
2019-05-05T07:44:36.359Z,7.58
2019-05-05T07:45:36.805Z,7.38
2019-05-05T07:46:37.088Z,7.15
2019-05-05T07:47:36.684Z,7.02
2019-05-05T07:48:36.094Z,7.07
2019-05-05T07:49:35.824Z,7.17
2019-05-05T07:50:38.549Z,7.28
2019-05-05T07:51:36.199Z,7.39
2019-05-05T07:52:36.619Z,7.51
2019-05-05T07:53:35.816Z,7.56
2019-05-05T07:54:36.667Z,7.9
2019-05-05T07:55:36.772Z,7.9
2019-05-05T07:56:36.864Z,7.91
2019-05-05T07:57:36.387Z,7.93
2019-05-05T07:58:36.997Z,7.85
2019-05-05T07:59:36.516Z,7.91
2019-05-05T08:00:36.761Z,7.97
2019-05-05T08:01:36.320Z,7.91
2019-05-05T08:02:36.384Z,7.73
2019-05-05T08:03:36.355Z,7.57
2019-05-05T08:04:37.088Z,7.39
2019-05-05T08:05:36.055Z,7.43
2019-05-05T08:06:36.396Z,7.48
2019-05-05T08:07:36.491Z,7.39
2019-05-05T08:08:35.964Z,7.38
2019-05-05T08:09:36.042Z,7.36
2019-05-05T08:10:36.868Z,7.2
2019-05-05T08:11:36.727Z,7.17
2019-05-05T08:12:36.644Z,7.06
2019-05-05T08:13:35.833Z,7.07
2019-05-05T08:14:36.176Z,6.97
2019-05-05T08:15:36.545Z,6.92
2019-05-05T08:16:36.158Z,6.88
2019-05-05T08:17:38.919Z,7.05
2019-05-05T08:18:37.047Z,7.03
2019-05-05T08:19:37.138Z,6.85
2019-05-05T08:20:36.349Z,6.99
2019-05-05T08:21:37.062Z,7.15
2019-05-05T08:22:36.455Z,7.23
2019-05-05T08:23:38.144Z,7.48
2019-05-05T08:24:36.146Z,7.51
2019-05-05T08:25:45.352Z,7.8
2019-05-05T08:26:36.148Z,7.95
2019-05-05T08:27:36.481Z,8.09
2019-05-05T08:28:36.611Z,8.31
2019-05-05T08:29:36.796Z,8.64
2019-05-05T08:30:36.252Z,8.81
2019-05-05T08:31:36.350Z,8.84
2019-05-05T08:32:38.307Z,9.1
2019-05-05T08:33:35.847Z,9.19
2019-05-05T08:34:36.143Z,9.62
2019-05-05T08:35:36.905Z,9.8
2019-05-05T08:36:39.322Z,10.09
2019-05-05T08:37:36.783Z,10.1
2019-05-05T08:38:37.250Z,10.04
2019-05-05T08:39:36.969Z,9.79
2019-05-05T08:40:37.051Z,9.44
2019-05-05T08:41:36.296Z,9.26
2019-05-05T08:42:36.140Z,9.37
2019-05-05T08:43:36.983Z,9.41
2019-05-05T08:44:36.798Z,9.36
2019-05-05T08:45:37.452Z,9.37
2019-05-05T08:46:36.237Z,9.28
2019-05-05T08:47:37.003Z,9.13
2019-05-05T08:48:36.379Z,8.92
2019-05-05T08:49:37.159Z,8.71
2019-05-05T08:50:37.340Z,8.53
2019-05-05T08:51:36.393Z,8.42
2019-05-05T08:52:36.732Z,8.37
2019-05-05T08:53:50.829Z,8.42
2019-05-05T08:54:36.635Z,8.55
2019-05-05T08:55:36.403Z,8.69
2019-05-05T08:56:36.555Z,8.78
2019-05-05T08:57:36.569Z,8.73
2019-05-05T08:58:36.844Z,8.67
2019-05-05T08:59:35.962Z,8.76
2019-05-05T09:00:36.313Z,8.82
2019-05-05T09:01:36.729Z,8.94
2019-05-05T09:02:40.227Z,9.03
2019-05-05T09:03:36.132Z,9.08
2019-05-05T09:04:36.493Z,9
2019-05-05T09:05:36.621Z,9.1
2019-05-05T09:06:37.852Z,9.19
2019-05-05T09:07:35.864Z,9.13
2019-05-05T09:08:37.129Z,9.1
2019-05-05T09:09:36.011Z,9.04
2019-05-05T09:10:36.822Z,8.74
2019-05-05T09:11:36.700Z,8.74
2019-05-05T09:12:36.124Z,8.78
2019-05-05T09:13:36.207Z,8.81
2019-05-05T09:14:37.020Z,8.74
2019-05-05T09:15:37.646Z,8.87
2019-05-05T09:16:35.962Z,8.95
2019-05-05T09:17:36.107Z,9.11
2019-05-05T09:18:36.172Z,9.19
2019-05-05T09:19:36.945Z,9.28
2019-05-05T09:20:37.204Z,9.44
2019-05-05T09:21:36.798Z,9.4
2019-05-05T09:22:37.286Z,9.46
2019-05-05T09:23:36.804Z,9.4
2019-05-05T09:24:36.558Z,9.29
2019-05-05T09:25:36.346Z,9.23
2019-05-05T09:26:36.848Z,9.29
2019-05-05T09:27:36.301Z,9.37
2019-05-05T09:28:36.336Z,9.47
2019-05-05T09:29:37.134Z,9.26
2019-05-05T09:30:36.351Z,9.14
2019-05-05T09:31:36.795Z,9.06
2019-05-05T09:32:36.889Z,9
2019-05-05T09:33:36.095Z,9.02
2019-05-05T09:34:36.545Z,9.11
2019-05-05T09:35:36.404Z,9.14
2019-05-05T09:36:37.268Z,9.22
2019-05-05T09:37:36.445Z,9.25
2019-05-05T09:38:37.192Z,9.16
2019-05-05T09:39:37.023Z,9
2019-05-05T09:40:35.903Z,8.87
2019-05-05T09:41:36.442Z,8.82
2019-05-05T09:42:36.629Z,8.78
2019-05-05T09:43:36.956Z,8.89
2019-05-05T09:44:37.057Z,8.95
2019-05-05T09:45:35.832Z,9.08
2019-05-05T09:46:38.030Z,9.18
2019-05-05T09:47:36.851Z,9.34
2019-05-05T09:48:36.018Z,9.55
2019-05-05T09:49:36.345Z,9.87
2019-05-05T09:50:36.621Z,10.16
2019-05-05T09:51:37.178Z,10.02
2019-05-05T09:52:36.226Z,9.84
2019-05-05T09:53:36.951Z,9.95
2019-05-05T09:54:36.784Z,10.01
2019-05-05T09:55:35.813Z,10.12
2019-05-05T09:56:36.114Z,10.13
2019-05-05T09:57:36.871Z,10.12
2019-05-05T09:58:37.205Z,10.05
2019-05-05T09:59:39.987Z,10.04
2019-05-05T10:00:35.824Z,10.13
2019-05-05T10:01:36.087Z,10.25
2019-05-05T10:02:36.676Z,10.48
2019-05-05T10:03:36.522Z,10.72
2019-05-05T10:04:34.936Z,10.74
2019-05-05T10:05:36.637Z,10.53
2019-05-05T10:06:36.116Z,10.46
2019-05-05T10:07:37.031Z,10.38
2019-05-05T10:08:36.613Z,10.15
2019-05-05T10:09:36.957Z,10.17
2019-05-05T10:10:36.130Z,10.19
2019-05-05T10:11:35.492Z,10.23
2019-05-05T10:12:36.038Z,10.26
2019-05-05T10:13:36.091Z,10.41
2019-05-05T10:14:36.367Z,10.51
2019-05-05T10:15:34.879Z,10.42
2019-05-05T10:16:34.709Z,10.37
2019-05-05T10:17:36.081Z,10.16
2019-05-05T10:18:38.086Z,10.13
2019-05-05T10:19:34.882Z,10.09
2019-05-05T10:20:36.786Z,10.12
2019-05-05T10:21:36.376Z,10.09
2019-05-05T10:22:36.512Z,10.19
2019-05-05T10:23:36.600Z,10.07
2019-05-05T10:24:36.424Z,10.01
2019-05-05T10:25:36.793Z,10.16
2019-05-05T10:26:36.814Z,10.12
2019-05-05T10:27:50.257Z,10.15
2019-05-05T10:28:36.522Z,10.26
2019-05-05T10:29:34.580Z,10.25
2019-05-05T10:30:35.091Z,10.3
2019-05-05T10:31:36.948Z,10.31
2019-05-05T10:32:35.083Z,10.42
2019-05-05T10:33:36.394Z,10.59
2019-05-05T10:34:35.963Z,10.64
2019-05-05T10:35:36.794Z,10.53
2019-05-05T10:36:36.148Z,10.54
2019-05-05T10:37:37.122Z,10.46
2019-05-05T10:38:36.564Z,10.4
2019-05-05T10:39:35.940Z,10.41
2019-05-05T10:40:36.379Z,10.56
2019-05-05T10:41:36.217Z,10.61
2019-05-05T10:42:36.052Z,10.76
2019-05-05T10:43:36.782Z,10.93
2019-05-05T10:44:36.526Z,10.97
2019-05-05T10:45:34.781Z,10.76
2019-05-05T10:46:36.538Z,10.71
2019-05-05T10:47:35.915Z,10.54
2019-05-05T10:48:36.456Z,10.6
2019-05-05T10:49:36.164Z,10.6
2019-05-05T10:50:36.349Z,10.33
2019-05-05T10:51:37.049Z,10.22
2019-05-05T10:52:36.163Z,10.15
2019-05-05T10:53:34.742Z,10.12
2019-05-05T10:54:48.683Z,10.1
2019-05-05T10:55:36.947Z,10.16
2019-05-05T10:56:36.643Z,10.13
2019-05-05T10:57:36.532Z,10.16
2019-05-05T10:58:36.039Z,10.16
2019-05-05T10:59:36.665Z,10.05
2019-05-05T11:00:36.170Z,10.09
2019-05-05T11:01:34.957Z,10.15
2019-05-05T11:02:37.048Z,10.15
2019-05-05T11:03:36.564Z,10.12
2019-05-05T11:04:36.028Z,10.19
2019-05-05T11:05:36.396Z,10.17
2019-05-05T11:06:34.692Z,10.09
2019-05-05T11:07:36.278Z,10.3
2019-05-05T11:08:37.359Z,10.38
2019-05-05T11:09:36.197Z,10.74
2019-05-05T11:10:36.418Z,11
2019-05-05T11:11:36.757Z,11.25
2019-05-05T11:12:36.159Z,11.26
2019-05-05T11:13:36.892Z,11.32
2019-05-05T11:14:36.135Z,11.25
2019-05-05T11:15:35.760Z,11.08
2019-05-05T11:16:34.649Z,10.82
2019-05-05T11:17:34.408Z,10.61
2019-05-05T11:18:37.049Z,10.57
2019-05-05T11:19:36.105Z,10.61
2019-05-05T11:20:36.528Z,10.57
2019-05-05T11:21:36.621Z,10.61
2019-05-05T11:22:37.035Z,10.6
2019-05-05T11:23:36.961Z,10.54
2019-05-05T11:24:36.995Z,10.44
2019-05-05T11:25:35.980Z,10.31
2019-05-05T11:26:36.389Z,10.3
2019-05-05T11:27:36.900Z,10.28
2019-05-05T11:28:36.397Z,10.13
2019-05-05T11:29:34.767Z,10.01
2019-05-05T11:30:36.167Z,9.89
2019-05-05T11:31:36.786Z,9.8
2019-05-05T11:32:36.131Z,9.79
2019-05-05T11:33:36.546Z,9.65
2019-05-05T11:34:36.216Z,9.64
2019-05-05T11:35:35.951Z,9.61
2019-05-05T11:36:36.976Z,9.54
2019-05-05T11:37:36.631Z,9.65
2019-05-05T11:38:36.296Z,9.58
2019-05-05T11:39:36.520Z,9.55
2019-05-05T11:40:34.554Z,9.58
2019-05-05T11:41:34.563Z,9.59
2019-05-05T11:42:36.416Z,9.54
2019-05-05T11:43:36.264Z,9.69
2019-05-05T11:44:35.729Z,9.73
2019-05-05T11:45:36.829Z,9.82
2019-05-05T11:46:36.393Z,10.01
2019-05-05T11:47:36.120Z,10.15
2019-05-05T11:48:36.846Z,10.16
2019-05-05T11:49:35.861Z,10.35
2019-05-05T11:50:36.598Z,10.53
2019-05-05T11:51:36.519Z,10.63
2019-05-05T11:52:36.128Z,10.68
2019-05-05T11:53:36.487Z,10.76
2019-05-05T11:54:34.254Z,10.78
2019-05-05T11:55:35.976Z,10.9
2019-05-05T11:56:36.417Z,10.96
2019-05-05T11:57:34.762Z,10.97
2019-05-05T11:58:36.519Z,11
2019-05-05T11:59:36.519Z,10.96
2019-05-05T12:00:37.107Z,10.92
2019-05-05T12:01:34.476Z,10.94
2019-05-05T12:02:35.930Z,10.97
2019-05-05T12:03:37.839Z,11.07
2019-05-05T12:04:34.705Z,11.05
2019-05-05T12:05:36.117Z,10.78
2019-05-05T12:06:36.234Z,10.69
2019-05-05T12:07:36.588Z,10.59
2019-05-05T12:08:36.849Z,10.6
2019-05-05T12:09:36.168Z,10.61
2019-05-05T12:10:36.850Z,10.51
2019-05-05T12:11:36.888Z,10.46
2019-05-05T12:12:35.856Z,10.37
2019-05-05T12:13:34.676Z,10.33
2019-05-05T12:14:34.424Z,10.28
2019-05-05T12:15:36.483Z,10.35
2019-05-05T12:16:34.749Z,10.41
2019-05-05T12:17:35.915Z,10.56
2019-05-05T12:18:36.362Z,10.63
2019-05-05T12:19:35.822Z,10.75
2019-05-05T12:20:36.121Z,10.74
2019-05-05T12:21:36.269Z,10.74
2019-05-05T12:22:36.447Z,10.78
2019-05-05T12:23:36.550Z,10.89
2019-05-05T12:24:36.373Z,10.93
2019-05-05T12:25:34.419Z,11.08
2019-05-05T12:26:34.777Z,11.17
2019-05-05T12:27:36.367Z,11.15
2019-05-05T12:28:36.793Z,11.15
2019-05-05T12:29:36.133Z,11.12
2019-05-05T12:30:36.251Z,11.15
2019-05-05T12:31:36.430Z,11.23
2019-05-05T12:32:37.141Z,11.33
2019-05-05T12:33:36.047Z,11.33
2019-05-05T12:34:36.255Z,11.37
2019-05-05T12:35:36.179Z,11.37
2019-05-05T12:36:36.572Z,11.32
2019-05-05T12:37:36.537Z,11.33
2019-05-05T12:38:36.881Z,11.36
2019-05-05T12:39:36.030Z,11.41
2019-05-05T12:40:36.132Z,11.26
2019-05-05T12:41:34.349Z,11.11
2019-05-05T12:42:34.965Z,11.04
2019-05-05T12:43:36.532Z,11.05
2019-05-05T12:44:36.274Z,10.9
2019-05-05T12:45:34.638Z,10.97
2019-05-05T12:46:36.197Z,10.93
2019-05-05T12:47:36.631Z,11.08
2019-05-05T12:48:34.516Z,11.14
2019-05-05T12:49:36.273Z,11.18
2019-05-05T12:50:36.297Z,11.27
2019-05-05T12:51:36.620Z,11.26
2019-05-05T12:52:36.059Z,11.23
2019-05-05T12:53:34.529Z,11.27
2019-05-05T12:54:36.061Z,11.15
2019-05-05T12:55:47.052Z,11.14
2019-05-05T12:56:36.422Z,11.04
2019-05-05T12:57:34.400Z,11.12
2019-05-05T12:58:36.035Z,11.17
2019-05-05T12:59:36.081Z,11.1
2019-05-05T13:00:34.490Z,11.22
2019-05-05T13:01:35.749Z,11.19
2019-05-05T13:02:34.004Z,11.25
2019-05-05T13:03:34.699Z,11.26
2019-05-05T13:04:35.985Z,11.32
2019-05-05T13:05:36.454Z,11.43
2019-05-05T13:06:36.903Z,11.52
2019-05-05T13:07:36.220Z,11.55
2019-05-05T13:08:36.409Z,11.6
2019-05-05T13:09:35.671Z,11.68
2019-05-05T13:10:36.181Z,11.77
2019-05-05T13:11:36.694Z,11.78
2019-05-05T13:12:36.537Z,11.94
2019-05-05T13:13:34.693Z,12.07
2019-05-05T13:14:36.081Z,12
2019-05-05T13:15:36.374Z,12.13
2019-05-05T13:16:34.469Z,12.24